Skip Navigation Links Skip Navigation Links

Current Weather

North Las Vegas, Las Vegas, Nev.

For information only: do not use for flight planning or navigation.
Latest weather
Observation time Monday, September 16, 2019 11:53 PM PDT
Local time Tuesday, September 17, 2019 12:19 AM PDT
Flight conditions Visual Meteorological Conditions
Winds
Wind direction South-Southwest (200°)
Wind speed 20 mph
Wind gusting to 29 mph
Peak wind speed 32 mph, 11:37 PM
Peak wind direction South-Southwest (200°)
Visibility 10 mi.
Sky condition
Ceiling unlimited
Sky clear
Temperature 82°F
Dewpoint 28°F
Altimeter 29.78 in.Hg
Derived measurements
Relative humidity 14%
Heat index 82°F
Density altitude 3925 ft.
Sea-level pressure 29.75 in.Hg
Remarks
Fully automated report.
Automated weather observing station with precipitation discriminator.
METAR KVGT 170653Z AUTO 20017G25KT 10SM CLR 28/M02 A2978 RMK AO2 PK WND 20028/0637 SLP073 T02781022

Settings

Location code

InnerDrive.Weather 4.0.6770.0 Release CLR 4.0.30319.42000
Copyright ©2018 Inner Drive Technology. All rights reserved. Portions Copyright ©1986-2018 David Braverman.

Find weather

Site navigation


Skip Navigation Links

Place info

Page info

PayPal - The safer, easier way to pay online!

Return home.

Copyright ©2019 Inner Drive Technology. Purveyors of fine, hand-crafted computer software. Page printed 2019-09-17T07:19:23 UTC.